Barclay, Minnesota
Current Conditions -  °F | °C
As of 4:14 AM on Saturday 20 Dec 2014 (Local Time) from KPWC Reporting Station
Haze Haze  
Wind Chill: 23°   Ceiling: 500
Heat Index: 28°   Visibility: 2.5mi
Dew Point: 28°   Wind: 5mph
Humidity: 100%   Direction: 180°S
Pressure: 30.09"   Gusts: NA
Location:  46.6535°N, 94.5389°W
Report Text: KPWC 201014Z AUTO 18004KT 2 1/2SM BR OVC005 M02/M02 A3009 RMK AO2
Loading
Personal Weather Stations






























Interactive Weather Map New forecast layout! Learn more

10-Day Weather Forecast

Advertisements
Track Severe Weather on mobile